Time;durP1;ratioP1;P1;durP2;ratioP2;P2;SDS_P1;SDS_P2;PMS_P1;PMS_P2;Temp;Humidity;BMP_temperature;BMP_pressure;BME280_temperature;BME280_humidity;BME280_pressure;Samples;Min_cycle;Max_cycle;Signal;HPM_P1;HPM_P2
2021/09/02 11:21:19;;;;;;;25.13;10.90;;;22.30;90.70;;;;;;11960374;27;20453;-52
2021/09/02 11:27:06;;;;;;;17.23;10.45;;;22.60;89.20;;;;;;11978194;28;20068;-55
2021/09/02 11:32:55;;;;;;;19.63;9.35;;;22.80;88.80;;;;;;11978137;28;20520;-51
2021/09/02 11:45:27;;;;;;;19.08;9.15;;;23.20;87.60;;;;;;12005979;28;20408;-53
2021/09/02 11:51:23;;;;;;;14.07;8.25;;;23.40;87.50;;;;;;12006692;28;20428;-53
2021/09/02 11:57:10;;;;;;;13.32;8.13;;;23.60;85.20;;;;;;11991406;28;20475;-54
2021/09/02 12:03:00;;;;;;;15.55;8.30;;;23.80;84.30;;;;;;11942764;28;20402;-50
2021/09/02 12:08:48;;;;;;;15.55;8.60;;;23.90;82.80;;;;;;11960518;28;20046;-53
2021/09/02 12:14:35;;;;;;;11.70;7.90;;;24.00;82.60;;;;;;11990996;28;20060;-54
2021/09/02 12:20:26;;;;;;;16.10;8.20;;;24.10;80.90;;;;;;11971525;28;20096;-53
2021/09/02 12:26:14;;;;;;;13.15;8.55;;;24.30;81.00;;;;;;11956377;28;20056;-51
2021/09/02 12:32:01;;;;;;;12.27;7.82;;;24.50;79.80;;;;;;11958576;28;20060;-53
2021/09/02 12:37:49;;;;;;;86.18;60.53;;;24.50;79.60;;;;;;11981085;28;20149;-53
2021/09/02 12:43:36;;;;;;;14.90;9.27;;;24.70;79.00;;;;;;11973673;28;20041;-50
2021/09/02 12:49:25;;;;;;;16.05;8.90;;;24.90;78.40;;;;;;11971886;28;20101;-50
2021/09/02 12:55:17;;;;;;;10.73;7.38;;;25.00;77.00;;;;;;11974521;28;20398;-49
2021/09/02 13:01:04;;;;;;;11.10;7.50;;;25.10;76.70;;;;;;11972290;28;20432;-50
2021/09/02 13:06:52;;;;;;;15.10;8.43;;;25.20;76.30;;;;;;11972403;28;20280;-49
2021/09/02 13:12:40;;;;;;;13.25;7.72;;;25.40;74.90;;;;;;11971753;28;20049;-51
2021/09/02 13:18:28;;;;;;;15.05;8.07;;;25.50;74.90;;;;;;11955933;28;20042;-52
2021/09/02 13:24:17;;;;;;;13.25;7.82;;;25.70;74.30;;;;;;11976452;28;20191;-52
2021/09/02 13:30:07;;;;;;;14.75;7.40;;;25.80;75.20;;;;;;11968247;28;20124;-52
2021/09/02 13:35:54;;;;;;;14.30;7.53;;;26.00;73.10;;;;;;11969884;28;20060;-48
2021/09/02 13:41:41;;;;;;;12.32;7.57;;;26.10;72.30;;;;;;11969858;28;20069;-52
2021/09/02 13:47:29;;;;;;;12.07;7.00;;;26.20;72.50;;;;;;11944911;28;20050;-52
2021/09/02 13:53:16;;;;;;;13.75;7.30;;;26.30;72.70;;;;;;11938308;28;20041;-50
2021/09/02 13:59:03;;;;;;;11.23;6.97;;;26.40;69.30;;;;;;11954151;28;20052;-51
2021/09/02 14:04:52;;;;;;;13.75;6.50;;;26.40;69.70;;;;;;11955103;28;20049;-47
2021/09/02 14:10:40;;;;;;;10.68;6.47;;;26.50;67.50;;;;;;11909202;28;20049;-50
2021/09/02 14:16:27;;;;;;;11.80;7.00;;;26.60;68.00;;;;;;11933168;28;20057;-49
2021/09/02 14:22:15;;;;;;;11.00;6.88;;;26.70;68.40;;;;;;11938342;28;20045;-50
2021/09/02 14:28:02;;;;;;;160.45;113.35;;;26.80;66.30;;;;;;11936336;28;20057;-54
2021/09/02 14:33:50;;;;;;;10.48;7.55;;;26.80;66.20;;;;;;11937653;28;20045;-56
2021/09/02 14:46:20;;;;;;;13.85;7.05;;;27.00;67.10;;;;;;11940479;28;20418;-55
2021/09/02 14:52:07;;;;;;;9.00;6.53;;;27.00;66.70;;;;;;11944325;28;20042;-53
2021/09/02 14:57:54;;;;;;;9.90;6.20;;;27.00;65.00;;;;;;11967415;28;20049;-56
2021/09/02 15:03:42;;;;;;;9.77;7.05;;;27.10;64.60;;;;;;11965962;28;20060;-56
2021/09/02 15:09:29;;;;;;;12.63;6.78;;;27.30;65.10;;;;;;11966608;28;20053;-54
2021/09/02 15:15:16;;;;;;;8.95;6.05;;;27.40;63.30;;;;;;11958795;28;20044;-54
2021/09/02 15:21:04;;;;;;;8.52;5.97;;;27.30;62.80;;;;;;11937694;28;20061;-56
2021/09/02 15:33:33;;;;;;;8.35;5.57;;;27.40;62.10;;;;;;11966383;28;20030;-55
2021/09/02 15:39:22;;;;;;;9.27;5.93;;;27.40;61.80;;;;;;11968610;28;20517;-54
2021/09/02 15:45:09;;;;;;;10.45;6.05;;;27.40;62.30;;;;;;11940270;28;20433;-54
2021/09/02 15:50:58;;;;;;;9.70;5.90;;;27.50;62.30;;;;;;11965979;28;20052;-54
2021/09/02 15:56:46;;;;;;;7.90;5.32;;;27.60;61.80;;;;;;11965428;28;20054;-55
2021/09/02 16:02:33;;;;;;;7.93;5.30;;;27.70;61.70;;;;;;11963922;28;20050;-55
2021/09/02 16:08:20;;;;;;;8.27;5.03;;;27.70;62.20;;;;;;11972340;28;20057;-55
2021/09/02 16:14:08;;;;;;;57.45;41.78;;;27.80;61.20;;;;;;11966806;22;20049;-84
2021/09/02 16:19:55;;;;;;;12.75;6.07;;;28.00;61.70;;;;;;11957101;28;20500;-85
2021/09/02 16:25:42;;;;;;;12.43;10.82;;;28.10;60.30;;;;;;11956722;28;20435;-81
2021/09/02 16:31:31;;;;;;;9.90;5.63;;;29.10;58.00;;;;;;11952086;28;20057;-82
2021/09/02 16:37:18;;;;;;;5.78;4.85;;;31.50;53.30;;;;;;11953511;28;20041;-82
2021/09/02 16:43:16;;;;;;;11.35;8.52;;;34.20;49.50;;;;;;11900268;28;20508;-84
2021/09/02 16:49:05;;;;;;;8.00;5.55;;;36.20;45.20;;;;;;11945534;28;20041;-82
2021/09/02 16:55:02;;;;;;;27.50;20.08;;;37.30;42.80;;;;;;11952809;28;20063;-85
2021/09/02 17:01:29;;;;;;;;;;;;;;;;;;;;;
2021/09/02 17:07:26;;;;;;;9.80;5.78;;;38.00;40.60;;;;;;11935310;28;21682;-91
2021/09/02 17:13:16;;;;;;;8.50;4.80;;;37.90;40.60;;;;;;11964445;28;20154;-91
2021/09/02 17:19:03;;;;;;;97.78;71.72;;;37.90;40.30;;;;;;11910693;28;20045;-87
2021/09/02 17:25:00;;;;;;;9.00;5.32;;;37.30;41.00;;;;;;11957002;28;20075;-83
2021/09/02 17:30:47;;;;;;;6.25;4.93;;;34.20;45.00;;;;;;11959684;28;21444;-84
2021/09/02 17:36:34;;;;;;;86.25;64.07;;;31.50;49.40;;;;;;11953116;28;20125;-85
2021/09/02 17:42:25;;;;;;;12.25;6.65;;;29.70;52.50;;;;;;11898647;28;20228;-84
2021/09/02 17:48:14;;;;;;;14.15;5.57;;;28.50;55.10;;;;;;11914701;28;20083;-86
2021/09/02 17:54:06;;;;;;;8.57;5.47;;;27.60;57.20;;;;;;11953574;28;20100;-87
2021/09/02 17:59:55;;;;;;;10.17;5.33;;;26.90;58.20;;;;;;11949718;28;20629;-86
2021/09/02 18:05:42;;;;;;;9.70;5.40;;;26.50;59.40;;;;;;11970185;28;20056;-86
2021/09/02 18:11:29;;;;;;;8.70;5.85;;;26.20;60.60;;;;;;11864855;28;20587;-85
2021/09/02 18:17:27;;;;;;;11.70;5.78;;;25.80;61.70;;;;;;11814259;28;20448;-86
2021/09/02 18:23:14;;;;;;;9.52;5.50;;;25.60;62.80;;;;;;11904454;28;20042;-84
2021/09/02 18:29:03;;;;;;;11.27;6.18;;;25.40;64.20;;;;;;11901025;28;20046;-85
2021/09/02 18:34:52;;;;;;;9.90;6.50;;;25.10;66.70;;;;;;11902247;28;20066;-84
2021/09/02 18:40:44;;;;;;;9.70;6.20;;;24.80;69.10;;;;;;11895020;28;20516;-85
2021/09/02 18:46:31;;;;;;;14.33;6.10;;;24.50;70.50;;;;;;11889189;28;20133;-85
2021/09/02 18:52:28;;;;;;;11.45;5.80;;;24.20;71.50;;;;;;11899454;28;20042;-85
2021/09/02 18:58:14;;;;;;;9.18;5.90;;;24.00;72.60;;;;;;11889674;28;20049;-87
2021/09/02 19:04:02;;;;;;;9.50;5.47;;;23.80;73.40;;;;;;11904543;28;20046;-87
2021/09/02 19:09:52;;;;;;;11.95;6.25;;;23.60;74.20;;;;;;11897954;28;20054;-87
2021/09/02 19:15:40;;;;;;;10.07;6.88;;;23.50;74.90;;;;;;11951608;28;20421;-87
2021/09/02 19:21:42;;;;;;;29.25;12.90;;;23.40;75.50;;;;;;11794658;28;20063;-86
2021/09/02 19:27:31;;;;;;;9.57;6.03;;;23.20;75.80;;;;;;11833863;28;20064;-86
2021/09/02 19:33:19;;;;;;;12.60;6.50;;;23.10;76.00;;;;;;11952104;28;20095;-86
2021/09/02 19:39:10;;;;;;;12.35;7.22;;;23.00;76.40;;;;;;11952303;28;20659;-87
